Perch, North Carolina
Current Conditions -  °F | °C
As of 12:55 PM on Thursday 29 Jan 2015 (Local Time) from KMWK Reporting Station
Scattered Clouds Scattered Clouds  
Wind Chill:   Ceiling: Unl
Heat Index:   Visibility: 10mi
Dew Point: -5°   Wind: 10mph
Humidity: 46%   Direction: 210°SSW
Pressure: 30.19"   Gusts: NA
Location:  36.3244°N, 80.463°W
Report Text: KMWK 291755Z AUTO 21009KT 10SM SCT075 SCT120 06/M05 A3019 RMK AO2 T00561053 10061 21041
Loading
Personal Weather Stations






























Interactive Weather Map New forecast layout! Learn more

10-Day Weather Forecast

Advertisements
Track Severe Weather on mobile